createdAt,value
2022-07-26T00:02:01.457Z,1.70
2022-07-26T00:05:05.835Z,1.17
2022-07-26T00:08:11.786Z,0.88
2022-07-26T00:11:15.732Z,1.15
2022-07-26T00:14:18.565Z,1.13
2022-07-26T00:17:21.465Z,1.30
2022-07-26T00:20:24.217Z,1.23
2022-07-26T00:23:30.761Z,1.17
2022-07-26T00:26:33.929Z,1.40
2022-07-26T00:29:37.196Z,1.33
2022-07-26T00:32:39.905Z,0.90
2022-07-26T00:35:42.892Z,0.75
2022-07-26T00:38:45.743Z,1.10
2022-07-26T00:41:48.694Z,1.50
2022-07-26T00:44:51.527Z,1.37
2022-07-26T00:47:54.642Z,1.75
2022-07-26T00:50:57.708Z,1.77
2022-07-26T00:54:00.755Z,1.42
2022-07-26T00:57:03.821Z,1.17
2022-07-26T01:00:10.062Z,0.70
2022-07-26T01:03:12.888Z,1.35
2022-07-26T01:06:16.004Z,1.60
2022-07-26T01:09:19.676Z,0.93
2022-07-26T01:12:22.641Z,1.77
2022-07-26T01:15:25.285Z,1.43
2022-07-26T01:18:28.272Z,1.17
2022-07-26T01:21:31.631Z,1.75
2022-07-26T01:24:34.681Z,1.45
2022-07-26T01:27:40.399Z,1.50
2022-07-26T01:30:43.381Z,0.97
2022-07-26T01:33:46.312Z,1.48
2022-07-26T01:36:49.412Z,1.08
2022-07-26T01:39:52.153Z,1.10
2022-07-26T01:42:55.256Z,1.35
2022-07-26T01:45:58.106Z,0.87
2022-07-26T01:49:01.881Z,1.45
2022-07-26T01:52:05.063Z,0.85
2022-07-26T01:55:08.889Z,1.08
2022-07-26T01:58:11.611Z,0.80
2022-07-26T02:01:14.670Z,0.97
2022-07-26T02:04:36.286Z,1.30
2022-07-26T02:07:44.449Z,1.10
2022-07-26T02:11:04.058Z,1.25
2022-07-26T02:14:07.049Z,1.48
2022-07-26T02:17:10.745Z,0.97
2022-07-26T02:20:16.961Z,1.65
2022-07-26T02:23:21.102Z,1.23
2022-07-26T02:26:23.767Z,1.58
2022-07-26T02:29:27.251Z,1.00
2022-07-26T02:32:29.808Z,0.93
2022-07-26T02:35:32.793Z,1.17
2022-07-26T02:38:35.331Z,1.50
2022-07-26T02:41:38.728Z,1.40
2022-07-26T02:44:41.866Z,1.42
2022-07-26T02:47:54.147Z,0.93
2022-07-26T02:50:56.764Z,0.62
2022-07-26T02:53:59.761Z,1.48
2022-07-26T02:57:02.456Z,1.17
2022-07-26T03:00:06.478Z,1.10
2022-07-26T03:03:14.116Z,0.90
2022-07-26T03:06:18.336Z,1.75
2022-07-26T03:09:21.002Z,0.93
2022-07-26T03:12:25.189Z,1.65
2022-07-26T03:15:27.845Z,1.52
2022-07-26T03:18:31.102Z,1.13
2022-07-26T03:21:33.763Z,1.30
2022-07-26T03:24:37.453Z,1.33
2022-07-26T03:27:40.266Z,1.35
2022-07-26T03:30:43.324Z,1.27
2022-07-26T03:33:46.068Z,0.83
2022-07-26T03:36:49.430Z,1.23
2022-07-26T03:39:52.228Z,1.20
2022-07-26T03:42:55.477Z,1.05
2022-07-26T03:45:58.105Z,1.00
2022-07-26T03:49:01.583Z,1.10
2022-07-26T03:52:04.367Z,1.00
2022-07-26T03:55:26.611Z,0.80
2022-07-26T03:58:29.583Z,1.08
2022-07-26T04:01:33.226Z,1.50
2022-07-26T04:04:36.179Z,1.10
2022-07-26T04:07:52.555Z,0.82
2022-07-26T04:10:56.497Z,0.82
2022-07-26T04:14:00.298Z,1.12
2022-07-26T04:17:03.303Z,0.70
2022-07-26T04:20:07.635Z,0.87
2022-07-26T04:23:12.305Z,0.75
2022-07-26T04:26:15.294Z,1.48
2022-07-26T04:29:18.184Z,1.10
2022-07-26T04:32:20.897Z,1.50
2022-07-26T04:35:24.169Z,1.30
2022-07-26T04:38:26.958Z,0.90
2022-07-26T04:41:30.858Z,1.33
2022-07-26T04:44:33.576Z,1.10
2022-07-26T04:47:36.744Z,2.08
2022-07-26T04:50:39.924Z,1.30
2022-07-26T04:53:42.827Z,1.37
2022-07-26T04:56:45.453Z,1.30
2022-07-26T05:00:03.347Z,0.98
2022-07-26T05:03:11.237Z,1.75
2022-07-26T05:06:14.455Z,0.80
2022-07-26T05:09:17.584Z,1.40
2022-07-26T05:12:20.471Z,0.95
2022-07-26T05:15:23.388Z,1.08
2022-07-26T05:18:27.195Z,1.65
2022-07-26T05:21:32.007Z,1.50
2022-07-26T05:24:34.935Z,1.50
2022-07-26T05:27:39.027Z,1.95
2022-07-26T05:30:42.042Z,1.23
2022-07-26T05:33:44.695Z,1.85
2022-07-26T05:36:47.684Z,1.80
2022-07-26T05:39:50.648Z,1.60
2022-07-26T05:42:53.732Z,1.35
2022-07-26T05:45:57.028Z,1.98
2022-07-26T05:49:00.083Z,1.70
2022-07-26T05:52:03.623Z,1.93
2022-07-26T05:55:07.385Z,1.50
2022-07-26T05:58:10.093Z,2.08
2022-07-26T06:01:13.145Z,1.60
2022-07-26T06:04:16.311Z,1.90
2022-07-26T06:07:19.056Z,2.07
2022-07-26T06:10:22.031Z,2.62
2022-07-26T06:13:24.659Z,2.50
2022-07-26T06:16:27.674Z,2.28
2022-07-26T06:19:31.083Z,2.17
2022-07-26T06:22:34.069Z,3.33
2022-07-26T06:25:36.883Z,3.03
2022-07-26T06:28:39.975Z,2.08
2022-07-26T06:31:42.699Z,2.20
2022-07-26T06:34:45.769Z,2.33
2022-07-26T06:37:48.459Z,2.00
2022-07-26T06:40:51.556Z,2.12
2022-07-26T06:43:54.222Z,2.53
2022-07-26T06:46:57.281Z,1.83
2022-07-26T06:49:59.941Z,2.22
2022-07-26T06:53:02.936Z,2.37
2022-07-26T06:56:06.052Z,2.42
2022-07-26T06:59:09.621Z,2.10
2022-07-26T07:02:12.447Z,2.15
2022-07-26T07:05:15.675Z,2.10
2022-07-26T07:08:18.723Z,2.23
2022-07-26T07:11:23.060Z,2.65
2022-07-26T07:14:25.765Z,2.60
2022-07-26T07:17:28.780Z,2.37
2022-07-26T07:20:31.603Z,2.80
2022-07-26T07:23:34.581Z,2.10
2022-07-26T07:26:37.301Z,3.10
2022-07-26T07:29:42.119Z,2.17
2022-07-26T07:32:46.085Z,2.12
2022-07-26T07:35:49.044Z,2.83
2022-07-26T07:38:51.997Z,2.07
2022-07-26T07:41:54.957Z,2.20
2022-07-26T07:44:57.598Z,2.58
2022-07-26T07:48:00.575Z,1.67
2022-07-26T07:51:03.244Z,2.37
2022-07-26T07:54:07.254Z,1.83
2022-07-26T07:57:11.230Z,2.05
2022-07-26T08:00:19.469Z,1.75
2022-07-26T08:03:38.929Z,2.25
2022-07-26T08:06:42.296Z,2.85
2022-07-26T08:09:53.292Z,2.30
2022-07-26T08:12:55.949Z,2.47
2022-07-26T08:15:59.306Z,2.92
2022-07-26T08:19:03.833Z,3.35
2022-07-26T08:22:08.356Z,2.65
2022-07-26T08:25:11.113Z,2.43
2022-07-26T08:28:37.533Z,2.53
2022-07-26T08:31:37.032Z,2.75
2022-07-26T08:34:40.009Z,3.17
2022-07-26T08:37:42.753Z,3.25
2022-07-26T08:40:45.772Z,2.77
2022-07-26T08:43:51.653Z,2.60
2022-07-26T08:46:55.586Z,2.33
2022-07-26T08:49:58.374Z,2.12
2022-07-26T08:53:04.169Z,2.55
2022-07-26T08:56:07.792Z,3.13
2022-07-26T08:59:20.541Z,2.42
2022-07-26T09:02:40.541Z,2.97
2022-07-26T09:05:43.455Z,2.62
2022-07-26T09:08:53.620Z,2.45
2022-07-26T09:11:57.708Z,1.50
2022-07-26T09:15:01.643Z,2.75
2022-07-26T09:18:06.011Z,2.58
2022-07-26T09:21:25.626Z,2.95
2022-07-26T09:24:35.759Z,2.95
2022-07-26T09:27:38.493Z,1.97
2022-07-26T09:30:52.579Z,2.75
2022-07-26T09:33:55.320Z,2.40
2022-07-26T09:36:58.270Z,3.20
2022-07-26T09:40:05.474Z,2.75
2022-07-26T09:43:09.957Z,2.70
2022-07-26T09:46:13.170Z,2.92
2022-07-26T09:49:21.661Z,2.90
2022-07-26T09:52:24.646Z,3.08
2022-07-26T09:55:35.045Z,2.00
2022-07-26T09:58:42.160Z,2.73
2022-07-26T10:01:45.893Z,2.33
2022-07-26T10:09:10.816Z,2.45
2022-07-26T10:12:16.668Z,3.08
2022-07-26T10:15:40.544Z,3.27
2022-07-26T10:18:44.997Z,2.80
2022-07-26T10:21:47.809Z,2.58
2022-07-26T10:24:57.561Z,2.75
2022-07-26T10:28:01.017Z,2.53
2022-07-26T10:31:25.966Z,2.37
2022-07-26T10:34:37.929Z,2.78
2022-07-26T10:47:04.431Z,2.25
2022-07-26T10:50:08.283Z,2.10
2022-07-26T10:53:19.402Z,3.05
2022-07-26T10:56:22.481Z,2.37
2022-07-26T10:59:55.006Z,3.33
2022-07-26T11:02:59.593Z,3.03
2022-07-26T11:06:12.631Z,2.63
2022-07-26T11:09:16.162Z,2.17
2022-07-26T11:12:20.226Z,3.70
2022-07-26T11:15:23.144Z,3.17
2022-07-26T11:18:30.768Z,3.12
2022-07-26T11:21:33.850Z,2.60
2022-07-26T11:24:40.976Z,2.37
2022-07-26T11:28:02.072Z,3.03
2022-07-26T11:31:04.864Z,3.25
2022-07-26T11:34:20.473Z,3.05
2022-07-26T11:37:23.170Z,2.63
2022-07-26T11:40:45.229Z,3.37
2022-07-26T11:43:49.111Z,2.35
2022-07-26T11:46:52.449Z,2.65
2022-07-26T11:53:22.718Z,3.13
2022-07-26T11:56:27.756Z,3.03
2022-07-26T11:59:34.372Z,2.67
2022-07-26T12:02:37.147Z,2.60
2022-07-26T12:05:42.090Z,2.92
2022-07-26T12:08:55.741Z,2.47
2022-07-26T12:11:59.772Z,3.00
2022-07-26T12:15:05.727Z,2.40
2022-07-26T12:18:10.666Z,2.22
2022-07-26T12:21:13.305Z,2.72
2022-07-26T12:24:36.216Z,2.47
2022-07-26T12:27:46.651Z,2.90
2022-07-26T12:30:49.669Z,2.62
2022-07-26T12:33:52.592Z,2.72
2022-07-26T12:36:55.656Z,3.33
2022-07-26T12:40:10.706Z,2.60
2022-07-26T12:47:43.033Z,2.53
2022-07-26T12:50:46.056Z,3.17
2022-07-26T12:53:48.772Z,3.03
2022-07-26T12:56:51.785Z,2.20
2022-07-26T13:04:24.819Z,2.72
2022-07-26T13:07:27.896Z,2.83
2022-07-26T13:10:33.671Z,2.25
2022-07-26T13:13:37.884Z,2.50
2022-07-26T13:16:40.611Z,3.53
2022-07-26T13:19:44.245Z,2.62
2022-07-26T13:22:46.915Z,3.17
2022-07-26T13:25:50.761Z,2.80
2022-07-26T13:28:53.522Z,2.47
2022-07-26T13:31:58.055Z,2.67
2022-07-26T13:35:00.686Z,3.42
2022-07-26T13:38:03.705Z,2.75
2022-07-26T13:41:06.479Z,2.90
2022-07-26T13:44:09.871Z,2.60
2022-07-26T13:47:14.480Z,2.65
2022-07-26T13:50:17.607Z,2.80
2022-07-26T13:53:20.289Z,2.37
2022-07-26T13:56:23.270Z,3.08
2022-07-26T13:59:26.258Z,2.90
2022-07-26T14:02:29.283Z,2.45
2022-07-26T14:05:32.250Z,2.20
2022-07-26T14:08:34.932Z,2.45
2022-07-26T14:11:39.006Z,2.05
2022-07-26T14:14:41.735Z,2.23
2022-07-26T14:17:47.958Z,2.45
2022-07-26T14:20:50.720Z,2.25
2022-07-26T14:23:55.857Z,2.28
2022-07-26T14:26:59.868Z,2.17
2022-07-26T14:30:05.809Z,2.07
2022-07-26T14:33:09.593Z,1.95
2022-07-26T14:36:13.763Z,1.98
2022-07-26T14:39:16.432Z,1.75
2022-07-26T14:42:19.429Z,2.45
2022-07-26T14:45:22.249Z,2.20
2022-07-26T14:48:51.904Z,2.22
2022-07-26T14:51:48.113Z,2.20
2022-07-26T14:54:51.773Z,2.08
2022-07-26T14:57:54.463Z,2.62
2022-07-26T15:00:57.975Z,2.13
2022-07-26T15:04:00.737Z,1.95
2022-07-26T15:07:04.054Z,1.65
2022-07-26T15:10:09.178Z,1.90
2022-07-26T15:13:13.753Z,2.90
2022-07-26T15:16:16.441Z,1.77
2022-07-26T15:19:23.713Z,1.95
2022-07-26T15:22:28.390Z,2.85
2022-07-26T15:25:31.374Z,2.17
2022-07-26T15:28:34.122Z,2.30
2022-07-26T15:31:37.941Z,2.13
2022-07-26T15:34:40.770Z,2.53
2022-07-26T15:37:44.207Z,1.33
2022-07-26T15:40:47.016Z,2.62
2022-07-26T15:43:49.984Z,2.42
2022-07-26T15:46:53.054Z,2.13
2022-07-26T15:49:56.045Z,2.12
2022-07-26T15:52:58.826Z,1.65
2022-07-26T15:56:02.884Z,1.45
2022-07-26T15:59:09.212Z,1.65
2022-07-26T16:02:12.251Z,1.83
2022-07-26T16:05:15.236Z,1.77
2022-07-26T16:08:17.913Z,2.17
2022-07-26T16:11:21.099Z,1.95
2022-07-26T16:14:23.847Z,1.62
2022-07-26T16:17:26.788Z,1.30
2022-07-26T16:20:29.557Z,1.62
2022-07-26T16:23:32.697Z,1.77
2022-07-26T16:26:36.397Z,1.48
2022-07-26T16:29:39.452Z,1.90
2022-07-26T16:32:42.833Z,1.53
2022-07-26T16:35:45.793Z,1.85
2022-07-26T16:38:48.461Z,2.55
2022-07-26T16:41:51.441Z,1.95
2022-07-26T16:44:54.259Z,1.92
2022-07-26T16:48:00.027Z,1.57
2022-07-26T16:51:03.107Z,1.95
2022-07-26T16:54:06.196Z,1.60
2022-07-26T16:57:08.943Z,3.10
2022-07-26T17:00:15.740Z,1.83
2022-07-26T17:03:19.450Z,2.00
2022-07-26T17:06:22.677Z,1.42
2022-07-26T17:09:25.313Z,2.60
2022-07-26T17:12:28.331Z,2.08
2022-07-26T17:15:30.973Z,1.80
2022-07-26T17:18:33.993Z,2.83
2022-07-26T17:21:36.631Z,1.58
2022-07-26T17:24:39.754Z,1.02
2022-07-26T17:27:42.558Z,1.37
2022-07-26T17:30:45.536Z,1.83
2022-07-26T17:33:48.289Z,2.03
2022-07-26T17:37:01.647Z,2.53
2022-07-26T17:40:09.116Z,1.45
2022-07-26T17:43:12.173Z,1.62
2022-07-26T17:46:15.601Z,1.83
2022-07-26T17:49:18.677Z,2.20
2022-07-26T17:52:21.380Z,1.30
2022-07-26T17:55:24.479Z,1.73
2022-07-26T17:58:27.211Z,1.17
2022-07-26T18:01:30.520Z,1.25
2022-07-26T18:04:33.541Z,1.73
2022-07-26T18:07:36.321Z,1.85
2022-07-26T18:10:39.350Z,2.08
2022-07-26T18:13:41.988Z,1.00
2022-07-26T18:16:48.302Z,2.67
2022-07-26T18:19:57.232Z,2.00
2022-07-26T18:23:00.216Z,1.58
2022-07-26T18:26:03.868Z,1.85
2022-07-26T18:29:07.063Z,1.48
2022-07-26T18:32:09.828Z,2.30
2022-07-26T18:35:12.803Z,1.83
2022-07-26T18:38:15.820Z,1.83
2022-07-26T18:41:19.017Z,1.92
2022-07-26T18:44:22.717Z,1.65
2022-07-26T18:47:25.783Z,0.82
2022-07-26T18:50:31.008Z,1.77
2022-07-26T18:53:35.320Z,1.80
2022-07-26T18:56:38.040Z,1.62
2022-07-26T18:59:41.362Z,1.37
2022-07-26T19:02:45.010Z,2.55
2022-07-26T19:05:48.213Z,2.03
2022-07-26T19:08:51.196Z,1.50
2022-07-26T19:11:54.184Z,1.70
2022-07-26T19:14:59.830Z,1.20
2022-07-26T19:18:11.172Z,1.42
2022-07-26T19:21:13.908Z,1.70
2022-07-26T19:24:16.914Z,2.12
2022-07-26T19:27:20.762Z,2.05
2022-07-26T19:30:24.990Z,2.08
2022-07-26T19:33:29.425Z,1.80
2022-07-26T19:36:32.417Z,1.77
2022-07-26T19:39:35.286Z,1.85
2022-07-26T19:42:38.499Z,1.98
2022-07-26T19:45:41.290Z,1.65
2022-07-26T19:48:44.498Z,1.95
2022-07-26T19:51:49.306Z,2.70
2022-07-26T19:54:52.360Z,2.30
2022-07-26T19:57:54.999Z,2.55
2022-07-26T20:00:58.188Z,1.70
2022-07-26T20:04:02.984Z,1.27
2022-07-26T20:07:05.760Z,1.90
2022-07-26T20:10:09.653Z,1.70
2022-07-26T20:13:13.798Z,2.15
2022-07-26T20:16:17.121Z,1.33
2022-07-26T20:19:19.814Z,2.17
2022-07-26T20:22:23.521Z,1.40
2022-07-26T20:25:26.329Z,1.90
2022-07-26T20:28:29.565Z,2.10
2022-07-26T20:31:32.200Z,1.73
2022-07-26T20:34:35.252Z,2.10
2022-07-26T20:37:38.020Z,1.20
2022-07-26T20:40:41.158Z,1.77
2022-07-26T20:43:45.277Z,1.55
2022-07-26T20:46:48.915Z,1.73
2022-07-26T20:49:51.614Z,2.67
2022-07-26T20:52:54.700Z,1.43
2022-07-26T20:55:57.453Z,1.95
2022-07-26T20:59:02.356Z,2.67
2022-07-26T21:02:05.169Z,2.12
2022-07-26T21:05:08.909Z,2.15
2022-07-26T21:08:11.808Z,1.57
2022-07-26T21:11:14.930Z,2.08
2022-07-26T21:14:17.546Z,1.85
2022-07-26T21:17:20.609Z,2.03
2022-07-26T21:20:35.557Z,1.77
2022-07-26T21:23:38.601Z,2.00
2022-07-26T21:26:42.249Z,1.23
2022-07-26T21:29:45.906Z,1.83
2022-07-26T21:32:48.602Z,1.55
2022-07-26T21:35:51.641Z,1.50
2022-07-26T21:38:54.314Z,2.23
2022-07-26T21:41:57.614Z,1.67
2022-07-26T21:45:00.211Z,2.10
2022-07-26T21:48:03.598Z,1.40
2022-07-26T21:51:06.269Z,1.48
2022-07-26T21:54:09.260Z,1.73
2022-07-26T21:57:11.921Z,1.37
2022-07-26T22:00:16.209Z,1.70
2022-07-26T22:03:19.111Z,2.10
2022-07-26T22:06:21.916Z,2.22
2022-07-26T22:09:24.883Z,1.60
2022-07-26T22:12:30.052Z,1.62
2022-07-26T22:15:34.202Z,2.30
2022-07-26T22:18:37.240Z,1.75
2022-07-26T22:21:40.407Z,1.75
2022-07-26T22:24:43.094Z,2.70
2022-07-26T22:27:46.018Z,2.08
2022-07-26T22:30:48.843Z,2.22
2022-07-26T22:33:51.818Z,2.12
2022-07-26T22:36:54.576Z,2.05
2022-07-26T22:39:57.564Z,2.07
2022-07-26T22:43:00.542Z,1.48
2022-07-26T22:46:03.888Z,2.28
2022-07-26T22:49:06.641Z,1.15
2022-07-26T22:52:15.297Z,1.62
2022-07-26T22:55:18.068Z,2.03
2022-07-26T22:58:21.230Z,1.70
2022-07-26T23:01:23.987Z,2.30
2022-07-26T23:04:27.074Z,1.60
2022-07-26T23:07:32.157Z,2.10
2022-07-26T23:10:35.481Z,2.07
2022-07-26T23:13:38.291Z,2.12
2022-07-26T23:16:41.318Z,1.60
2022-07-26T23:19:44.021Z,1.87
2022-07-26T23:22:47.117Z,1.65
2022-07-26T23:28:54.388Z,2.05
2022-07-26T23:31:57.354Z,3.03
2022-07-26T23:35:00.417Z,1.65
2022-07-26T23:38:03.092Z,1.90
2022-07-26T23:41:06.134Z,1.27
2022-07-26T23:44:08.873Z,1.75
2022-07-26T23:47:11.992Z,2.30
2022-07-26T23:50:15.451Z,2.42
2022-07-26T23:53:18.914Z,2.35
2022-07-26T23:56:29.531Z,2.13
2022-07-26T23:59:32.455Z,2.05
